sensor_id;sensor_type;location;lat;lon;timestamp;temperature;humidity
27559;DHT22;15002;52.028;5.670;2023-12-29T00:01:21;12.60;99.90
27559;DHT22;15002;52.028;5.670;2023-12-29T00:03:47;12.80;99.90
27559;DHT22;15002;52.028;5.670;2023-12-29T00:06:12;12.80;99.90
27559;DHT22;15002;52.028;5.670;2023-12-29T00:08:38;13.00;99.90
27559;DHT22;15002;52.028;5.670;2023-12-29T00:11:04;12.90;99.90
27559;DHT22;15002;52.028;5.670;2023-12-29T00:13:30;12.80;99.90
27559;DHT22;15002;52.028;5.670;2023-12-29T00:15:56;12.90;99.90
27559;DHT22;15002;52.028;5.670;2023-12-29T00:18:21;12.90;99.90
27559;DHT22;15002;52.028;5.670;2023-12-29T00:20:47;12.90;99.90
27559;DHT22;15002;52.028;5.670;2023-12-29T00:23:13;12.90;99.90
27559;DHT22;15002;52.028;5.670;2023-12-29T00:25:39;12.60;99.90
27559;DHT22;15002;52.028;5.670;2023-12-29T00:28:05;12.70;99.90
27559;DHT22;15002;52.028;5.670;2023-12-29T00:30:31;12.80;99.90
27559;DHT22;15002;52.028;5.670;2023-12-29T00:32:57;12.80;99.90
27559;DHT22;15002;52.028;5.670;2023-12-29T00:35:23;12.70;99.90
27559;DHT22;15002;52.028;5.670;2023-12-29T00:37:52;12.80;99.90
27559;DHT22;15002;52.028;5.670;2023-12-29T00:40:17;12.70;99.90
27559;DHT22;15002;52.028;5.670;2023-12-29T00:42:43;12.60;99.90
27559;DHT22;15002;52.028;5.670;2023-12-29T00:45:09;12.80;99.90
27559;DHT22;15002;52.028;5.670;2023-12-29T00:47:34;12.70;99.90
27559;DHT22;15002;52.028;5.670;2023-12-29T00:50:01;12.70;99.90
27559;DHT22;15002;52.028;5.670;2023-12-29T00:52:27;12.60;99.90
27559;DHT22;15002;52.028;5.670;2023-12-29T00:54:53;12.70;99.90
27559;DHT22;15002;52.028;5.670;2023-12-29T00:57:18;12.70;99.90
27559;DHT22;15002;52.028;5.670;2023-12-29T00:59:46;12.80;99.90
27559;DHT22;15002;52.028;5.670;2023-12-29T01:02:12;13.00;99.90
27559;DHT22;15002;52.028;5.670;2023-12-29T01:04:38;12.80;99.90
27559;DHT22;15002;52.028;5.670;2023-12-29T01:07:07;12.80;99.90
27559;DHT22;15002;52.028;5.670;2023-12-29T01:09:37;12.90;99.90
27559;DHT22;15002;52.028;5.670;2023-12-29T01:12:04;12.90;99.90
27559;DHT22;15002;52.028;5.670;2023-12-29T01:14:29;12.90;99.90
27559;DHT22;15002;52.028;5.670;2023-12-29T01:16:55;13.00;99.90
27559;DHT22;15002;52.028;5.670;2023-12-29T01:19:20;13.00;99.90
27559;DHT22;15002;52.028;5.670;2023-12-29T01:21:46;13.00;99.90
27559;DHT22;15002;52.028;5.670;2023-12-29T01:24:12;12.90;99.90
27559;DHT22;15002;52.028;5.670;2023-12-29T01:26:38;12.80;99.90
27559;DHT22;15002;52.028;5.670;2023-12-29T01:29:04;12.70;99.90
27559;DHT22;15002;52.028;5.670;2023-12-29T01:31:30;12.70;99.90
27559;DHT22;15002;52.028;5.670;2023-12-29T01:33:56;12.80;99.90
27559;DHT22;15002;52.028;5.670;2023-12-29T01:36:22;12.80;99.90
27559;DHT22;15002;52.028;5.670;2023-12-29T01:38:48;12.70;99.90
27559;DHT22;15002;52.028;5.670;2023-12-29T01:41:14;12.90;99.90
27559;DHT22;15002;52.028;5.670;2023-12-29T01:44:19;12.80;99.90
27559;DHT22;15002;52.028;5.670;2023-12-29T01:46:46;12.70;99.90
27559;DHT22;15002;52.028;5.670;2023-12-29T01:49:15;12.60;99.90
27559;DHT22;15002;52.028;5.670;2023-12-29T01:51:42;12.60;99.90
27559;DHT22;15002;52.028;5.670;2023-12-29T01:54:09;12.50;99.90
27559;DHT22;15002;52.028;5.670;2023-12-29T01:56:36;12.60;99.90
27559;DHT22;15002;52.028;5.670;2023-12-29T01:59:02;12.60;99.90
27559;DHT22;15002;52.028;5.670;2023-12-29T02:01:29;12.50;99.90
27559;DHT22;15002;52.028;5.670;2023-12-29T02:03:56;12.50;99.90
27559;DHT22;15002;52.028;5.670;2023-12-29T02:06:22;12.60;99.90
27559;DHT22;15002;52.028;5.670;2023-12-29T02:08:49;12.60;99.90
27559;DHT22;15002;52.028;5.670;2023-12-29T02:11:17;12.80;99.90
27559;DHT22;15002;52.028;5.670;2023-12-29T02:13:42;12.70;99.90
27559;DHT22;15002;52.028;5.670;2023-12-29T02:16:26;12.50;99.90
27559;DHT22;15002;52.028;5.670;2023-12-29T02:18:57;12.60;99.90
27559;DHT22;15002;52.028;5.670;2023-12-29T02:21:25;12.50;99.90
27559;DHT22;15002;52.028;5.670;2023-12-29T02:23:50;12.60;99.90
27559;DHT22;15002;52.028;5.670;2023-12-29T02:26:18;12.50;99.90
27559;DHT22;15002;52.028;5.670;2023-12-29T02:28:52;12.40;99.90
27559;DHT22;15002;52.028;5.670;2023-12-29T02:31:24;12.30;99.90
27559;DHT22;15002;52.028;5.670;2023-12-29T02:33:54;12.30;99.90
27559;DHT22;15002;52.028;5.670;2023-12-29T02:36:22;12.10;99.90
27559;DHT22;15002;52.028;5.670;2023-12-29T02:38:49;12.20;99.90
27559;DHT22;15002;52.028;5.670;2023-12-29T02:41:15;12.20;99.90
27559;DHT22;15002;52.028;5.670;2023-12-29T02:43:40;12.30;99.90
27559;DHT22;15002;52.028;5.670;2023-12-29T02:46:06;12.50;99.90
27559;DHT22;15002;52.028;5.670;2023-12-29T02:48:32;12.40;99.90
27559;DHT22;15002;52.028;5.670;2023-12-29T02:50:57;12.50;99.90
27559;DHT22;15002;52.028;5.670;2023-12-29T02:53:23;12.20;99.90
27559;DHT22;15002;52.028;5.670;2023-12-29T02:55:48;12.30;99.90
27559;DHT22;15002;52.028;5.670;2023-12-29T02:58:14;12.40;99.90
27559;DHT22;15002;52.028;5.670;2023-12-29T03:00:39;12.50;99.90
27559;DHT22;15002;52.028;5.670;2023-12-29T03:03:05;12.40;99.90
27559;DHT22;15002;52.028;5.670;2023-12-29T03:05:31;12.50;99.90
27559;DHT22;15002;52.028;5.670;2023-12-29T03:07:56;12.60;99.90
27559;DHT22;15002;52.028;5.670;2023-12-29T03:10:23;12.50;99.90
27559;DHT22;15002;52.028;5.670;2023-12-29T03:12:49;12.20;99.90
27559;DHT22;15002;52.028;5.670;2023-12-29T03:15:15;12.10;99.90
27559;DHT22;15002;52.028;5.670;2023-12-29T03:17:40;12.10;99.90
27559;DHT22;15002;52.028;5.670;2023-12-29T03:20:06;12.30;99.90
27559;DHT22;15002;52.028;5.670;2023-12-29T03:22:33;12.10;99.90
27559;DHT22;15002;52.028;5.670;2023-12-29T03:24:59;12.10;99.90
27559;DHT22;15002;52.028;5.670;2023-12-29T03:27:24;12.00;99.90
27559;DHT22;15002;52.028;5.670;2023-12-29T03:29:50;11.90;99.90
27559;DHT22;15002;52.028;5.670;2023-12-29T03:32:15;11.70;99.90
27559;DHT22;15002;52.028;5.670;2023-12-29T03:34:42;11.80;99.90
27559;DHT22;15002;52.028;5.670;2023-12-29T03:37:08;11.50;99.90
27559;DHT22;15002;52.028;5.670;2023-12-29T03:39:35;11.70;99.90
27559;DHT22;15002;52.028;5.670;2023-12-29T03:42:01;11.80;99.90
27559;DHT22;15002;52.028;5.670;2023-12-29T03:44:27;12.00;99.90
27559;DHT22;15002;52.028;5.670;2023-12-29T03:46:52;12.30;99.90
27559;DHT22;15002;52.028;5.670;2023-12-29T03:49:18;12.10;99.90
27559;DHT22;15002;52.028;5.670;2023-12-29T03:51:45;12.20;99.90
27559;DHT22;15002;52.028;5.670;2023-12-29T03:54:11;12.60;99.90
27559;DHT22;15002;52.028;5.670;2023-12-29T03:56:37;12.80;99.90
27559;DHT22;15002;52.028;5.670;2023-12-29T03:59:02;12.90;99.90
27559;DHT22;15002;52.028;5.670;2023-12-29T04:01:28;12.90;99.90
27559;DHT22;15002;52.028;5.670;2023-12-29T04:03:54;12.80;99.90
27559;DHT22;15002;52.028;5.670;2023-12-29T04:06:19;12.80;99.90
27559;DHT22;15002;52.028;5.670;2023-12-29T04:08:45;12.80;99.90
27559;DHT22;15002;52.028;5.670;2023-12-29T04:11:11;12.80;99.90
27559;DHT22;15002;52.028;5.670;2023-12-29T04:13:37;13.00;99.90
27559;DHT22;15002;52.028;5.670;2023-12-29T04:16:03;13.00;99.90
27559;DHT22;15002;52.028;5.670;2023-12-29T04:18:29;13.20;99.90
27559;DHT22;15002;52.028;5.670;2023-12-29T04:20:55;12.90;99.90
27559;DHT22;15002;52.028;5.670;2023-12-29T04:23:20;12.90;99.90
27559;DHT22;15002;52.028;5.670;2023-12-29T04:25:46;12.60;99.90
27559;DHT22;15002;52.028;5.670;2023-12-29T04:28:11;12.30;99.90
27559;DHT22;15002;52.028;5.670;2023-12-29T04:30:37;12.30;99.90
27559;DHT22;15002;52.028;5.670;2023-12-29T04:33:03;12.10;99.90
27559;DHT22;15002;52.028;5.670;2023-12-29T04:35:29;12.00;99.90
27559;DHT22;15002;52.028;5.670;2023-12-29T04:37:54;12.00;99.90
27559;DHT22;15002;52.028;5.670;2023-12-29T04:40:20;12.00;99.90
27559;DHT22;15002;52.028;5.670;2023-12-29T04:42:45;11.90;99.90
27559;DHT22;15002;52.028;5.670;2023-12-29T04:45:11;12.00;99.90
27559;DHT22;15002;52.028;5.670;2023-12-29T04:47:37;11.90;99.90
27559;DHT22;15002;52.028;5.670;2023-12-29T04:50:04;12.00;99.90
27559;DHT22;15002;52.028;5.670;2023-12-29T04:52:31;12.00;99.90
27559;DHT22;15002;52.028;5.670;2023-12-29T04:54:56;12.00;99.90
27559;DHT22;15002;52.028;5.670;2023-12-29T04:57:22;12.10;99.90
27559;DHT22;15002;52.028;5.670;2023-12-29T04:59:48;12.20;99.90
27559;DHT22;15002;52.028;5.670;2023-12-29T05:02:13;12.10;99.90
27559;DHT22;15002;52.028;5.670;2023-12-29T05:04:39;12.10;99.90
27559;DHT22;15002;52.028;5.670;2023-12-29T05:07:09;12.00;99.90
27559;DHT22;15002;52.028;5.670;2023-12-29T05:09:35;12.10;99.90
27559;DHT22;15002;52.028;5.670;2023-12-29T05:12:00;12.00;99.90
27559;DHT22;15002;52.028;5.670;2023-12-29T05:14:26;11.80;99.90
27559;DHT22;15002;52.028;5.670;2023-12-29T05:16:52;12.10;99.90
27559;DHT22;15002;52.028;5.670;2023-12-29T05:19:17;12.10;99.90
27559;DHT22;15002;52.028;5.670;2023-12-29T05:21:43;12.00;99.90
27559;DHT22;15002;52.028;5.670;2023-12-29T05:24:09;12.00;99.90
27559;DHT22;15002;52.028;5.670;2023-12-29T05:26:34;12.00;99.90
27559;DHT22;15002;52.028;5.670;2023-12-29T05:29:00;12.00;99.90
27559;DHT22;15002;52.028;5.670;2023-12-29T05:31:25;12.00;99.90
27559;DHT22;15002;52.028;5.670;2023-12-29T05:33:51;12.00;99.90
27559;DHT22;15002;52.028;5.670;2023-12-29T05:36:17;12.10;99.90
27559;DHT22;15002;52.028;5.670;2023-12-29T05:38:45;12.10;99.90
27559;DHT22;15002;52.028;5.670;2023-12-29T05:41:15;11.90;99.90
27559;DHT22;15002;52.028;5.670;2023-12-29T05:43:41;11.90;99.90
27559;DHT22;15002;52.028;5.670;2023-12-29T05:46:10;11.80;99.90
27559;DHT22;15002;52.028;5.670;2023-12-29T05:48:39;12.00;99.90
27559;DHT22;15002;52.028;5.670;2023-12-29T05:51:08;12.00;99.90
27559;DHT22;15002;52.028;5.670;2023-12-29T05:53:35;12.00;99.90
27559;DHT22;15002;52.028;5.670;2023-12-29T05:56:01;11.90;99.90
27559;DHT22;15002;52.028;5.670;2023-12-29T05:58:26;11.90;99.90
27559;DHT22;15002;52.028;5.670;2023-12-29T06:00:52;11.90;99.90
27559;DHT22;15002;52.028;5.670;2023-12-29T06:03:17;12.00;99.90
27559;DHT22;15002;52.028;5.670;2023-12-29T06:05:43;12.10;99.90
27559;DHT22;15002;52.028;5.670;2023-12-29T06:08:09;12.20;99.90
27559;DHT22;15002;52.028;5.670;2023-12-29T06:10:35;12.00;99.90
27559;DHT22;15002;52.028;5.670;2023-12-29T06:13:02;12.20;99.90
27559;DHT22;15002;52.028;5.670;2023-12-29T06:15:28;12.20;99.90
27559;DHT22;15002;52.028;5.670;2023-12-29T06:17:54;12.30;99.90
27559;DHT22;15002;52.028;5.670;2023-12-29T06:20:20;12.30;99.90
27559;DHT22;15002;52.028;5.670;2023-12-29T06:22:46;12.30;99.90
27559;DHT22;15002;52.028;5.670;2023-12-29T06:25:12;12.30;99.90
27559;DHT22;15002;52.028;5.670;2023-12-29T06:27:38;12.20;99.90
27559;DHT22;15002;52.028;5.670;2023-12-29T06:30:06;12.00;99.90
27559;DHT22;15002;52.028;5.670;2023-12-29T06:32:32;11.90;99.90
27559;DHT22;15002;52.028;5.670;2023-12-29T06:34:58;12.10;99.90
27559;DHT22;15002;52.028;5.670;2023-12-29T06:37:24;12.20;99.90
27559;DHT22;15002;52.028;5.670;2023-12-29T06:39:49;12.00;99.90
27559;DHT22;15002;52.028;5.670;2023-12-29T06:42:15;12.10;99.90
27559;DHT22;15002;52.028;5.670;2023-12-29T06:44:41;12.10;99.90
27559;DHT22;15002;52.028;5.670;2023-12-29T06:47:06;12.20;99.90
27559;DHT22;15002;52.028;5.670;2023-12-29T06:49:35;12.20;99.90
27559;DHT22;15002;52.028;5.670;2023-12-29T06:52:01;12.50;99.90
27559;DHT22;15002;52.028;5.670;2023-12-29T06:54:27;12.20;99.90
27559;DHT22;15002;52.028;5.670;2023-12-29T06:56:53;12.10;99.90
27559;DHT22;15002;52.028;5.670;2023-12-29T06:59:19;12.10;99.90
27559;DHT22;15002;52.028;5.670;2023-12-29T07:01:46;12.00;99.90
27559;DHT22;15002;52.028;5.670;2023-12-29T07:04:11;12.10;99.90
27559;DHT22;15002;52.028;5.670;2023-12-29T07:06:37;12.00;99.90
27559;DHT22;15002;52.028;5.670;2023-12-29T07:09:03;12.10;99.90
27559;DHT22;15002;52.028;5.670;2023-12-29T07:11:29;12.20;99.90
27559;DHT22;15002;52.028;5.670;2023-12-29T07:13:55;12.20;99.90
27559;DHT22;15002;52.028;5.670;2023-12-29T07:16:20;12.10;99.90
27559;DHT22;15002;52.028;5.670;2023-12-29T07:18:46;12.20;99.90
27559;DHT22;15002;52.028;5.670;2023-12-29T07:21:13;12.10;99.90
27559;DHT22;15002;52.028;5.670;2023-12-29T07:23:39;11.90;99.90
27559;DHT22;15002;52.028;5.670;2023-12-29T07:26:06;11.80;99.90
27559;DHT22;15002;52.028;5.670;2023-12-29T07:28:32;11.80;99.90
27559;DHT22;15002;52.028;5.670;2023-12-29T07:30:57;12.10;99.90
27559;DHT22;15002;52.028;5.670;2023-12-29T07:33:23;12.30;99.90
27559;DHT22;15002;52.028;5.670;2023-12-29T07:35:50;12.00;99.90
27559;DHT22;15002;52.028;5.670;2023-12-29T07:38:16;12.20;99.90
27559;DHT22;15002;52.028;5.670;2023-12-29T07:40:41;11.90;99.90
27559;DHT22;15002;52.028;5.670;2023-12-29T07:43:08;11.90;99.90
27559;DHT22;15002;52.028;5.670;2023-12-29T07:45:33;11.90;99.90
27559;DHT22;15002;52.028;5.670;2023-12-29T07:47:59;12.00;99.90
27559;DHT22;15002;52.028;5.670;2023-12-29T07:50:25;11.90;99.90
27559;DHT22;15002;52.028;5.670;2023-12-29T07:52:50;12.10;99.90
27559;DHT22;15002;52.028;5.670;2023-12-29T07:55:16;12.20;99.90
27559;DHT22;15002;52.028;5.670;2023-12-29T07:57:42;12.20;99.90
27559;DHT22;15002;52.028;5.670;2023-12-29T08:00:09;12.00;99.90
27559;DHT22;15002;52.028;5.670;2023-12-29T08:02:34;12.10;99.90
27559;DHT22;15002;52.028;5.670;2023-12-29T08:05:01;12.20;99.90
27559;DHT22;15002;52.028;5.670;2023-12-29T08:07:27;12.10;99.90
27559;DHT22;15002;52.028;5.670;2023-12-29T08:09:53;12.20;99.90
27559;DHT22;15002;52.028;5.670;2023-12-29T08:12:18;12.00;99.90
27559;DHT22;15002;52.028;5.670;2023-12-29T08:14:44;12.10;99.90
27559;DHT22;15002;52.028;5.670;2023-12-29T08:17:10;12.20;99.90
27559;DHT22;15002;52.028;5.670;2023-12-29T08:19:36;12.10;99.90
27559;DHT22;15002;52.028;5.670;2023-12-29T08:22:02;12.20;99.90
27559;DHT22;15002;52.028;5.670;2023-12-29T08:24:28;12.40;99.90
27559;DHT22;15002;52.028;5.670;2023-12-29T08:26:53;12.50;99.90
27559;DHT22;15002;52.028;5.670;2023-12-29T08:29:19;12.20;99.90
27559;DHT22;15002;52.028;5.670;2023-12-29T08:31:45;12.20;99.90
27559;DHT22;15002;52.028;5.670;2023-12-29T08:34:11;12.00;99.90
27559;DHT22;15002;52.028;5.670;2023-12-29T08:36:36;12.20;99.90
27559;DHT22;15002;52.028;5.670;2023-12-29T08:39:02;12.20;99.90
27559;DHT22;15002;52.028;5.670;2023-12-29T08:41:28;12.20;99.90
27559;DHT22;15002;52.028;5.670;2023-12-29T08:43:53;12.20;99.90
27559;DHT22;15002;52.028;5.670;2023-12-29T08:46:19;12.20;99.90
27559;DHT22;15002;52.028;5.670;2023-12-29T08:48:46;12.10;99.90
27559;DHT22;15002;52.028;5.670;2023-12-29T08:51:11;12.20;99.90
27559;DHT22;15002;52.028;5.670;2023-12-29T08:53:37;12.30;99.90
27559;DHT22;15002;52.028;5.670;2023-12-29T08:56:03;12.20;99.90
27559;DHT22;15002;52.028;5.670;2023-12-29T08:58:29;12.20;99.90
27559;DHT22;15002;52.028;5.670;2023-12-29T09:00:55;12.40;99.90
27559;DHT22;15002;52.028;5.670;2023-12-29T09:03:21;12.40;99.90
27559;DHT22;15002;52.028;5.670;2023-12-29T09:05:46;12.40;99.90
27559;DHT22;15002;52.028;5.670;2023-12-29T09:08:12;12.30;99.90
27559;DHT22;15002;52.028;5.670;2023-12-29T09:10:38;12.30;99.90
27559;DHT22;15002;52.028;5.670;2023-12-29T09:13:04;12.30;99.90
27559;DHT22;15002;52.028;5.670;2023-12-29T09:15:30;12.30;99.90
27559;DHT22;15002;52.028;5.670;2023-12-29T09:18:01;12.40;99.90
27559;DHT22;15002;52.028;5.670;2023-12-29T09:20:37;12.30;99.90
27559;DHT22;15002;52.028;5.670;2023-12-29T09:23:03;12.40;99.90
27559;DHT22;15002;52.028;5.670;2023-12-29T09:25:28;12.40;99.90
27559;DHT22;15002;52.028;5.670;2023-12-29T09:27:54;12.50;99.90
27559;DHT22;15002;52.028;5.670;2023-12-29T09:30:20;12.60;99.90
27559;DHT22;15002;52.028;5.670;2023-12-29T09:32:45;12.40;99.90
27559;DHT22;15002;52.028;5.670;2023-12-29T09:35:11;12.60;99.90
27559;DHT22;15002;52.028;5.670;2023-12-29T09:37:37;12.70;99.90
27559;DHT22;15002;52.028;5.670;2023-12-29T09:40:02;12.80;99.90
27559;DHT22;15002;52.028;5.670;2023-12-29T09:42:29;12.70;99.90
27559;DHT22;15002;52.028;5.670;2023-12-29T09:44:55;12.70;99.90
27559;DHT22;15002;52.028;5.670;2023-12-29T09:47:23;12.60;99.90
27559;DHT22;15002;52.028;5.670;2023-12-29T09:49:49;12.70;99.90
27559;DHT22;15002;52.028;5.670;2023-12-29T09:52:17;12.70;99.90
27559;DHT22;15002;52.028;5.670;2023-12-29T09:54:45;12.90;99.90
27559;DHT22;15002;52.028;5.670;2023-12-29T09:57:11;12.70;99.90
27559;DHT22;15002;52.028;5.670;2023-12-29T09:59:38;12.80;99.90
27559;DHT22;15002;52.028;5.670;2023-12-29T10:02:05;12.90;99.90
27559;DHT22;15002;52.028;5.670;2023-12-29T10:04:31;13.00;99.90
27559;DHT22;15002;52.028;5.670;2023-12-29T10:07:02;12.80;99.90
27559;DHT22;15002;52.028;5.670;2023-12-29T10:09:30;12.60;99.90
27559;DHT22;15002;52.028;5.670;2023-12-29T10:11:58;12.80;99.90
27559;DHT22;15002;52.028;5.670;2023-12-29T10:14:36;12.80;99.90
27559;DHT22;15002;52.028;5.670;2023-12-29T10:17:12;12.80;99.90
27559;DHT22;15002;52.028;5.670;2023-12-29T10:19:48;12.70;99.90
27559;DHT22;15002;52.028;5.670;2023-12-29T10:22:24;12.90;99.90
27559;DHT22;15002;52.028;5.670;2023-12-29T10:24:51;12.80;99.90
27559;DHT22;15002;52.028;5.670;2023-12-29T10:27:18;12.90;99.90
27559;DHT22;15002;52.028;5.670;2023-12-29T10:29:43;13.00;99.90
27559;DHT22;15002;52.028;5.670;2023-12-29T10:32:09;13.10;99.90
27559;DHT22;15002;52.028;5.670;2023-12-29T10:34:35;13.10;99.90
27559;DHT22;15002;52.028;5.670;2023-12-29T10:37:01;13.20;99.90
27559;DHT22;15002;52.028;5.670;2023-12-29T10:39:39;13.20;99.90
27559;DHT22;15002;52.028;5.670;2023-12-29T10:42:08;13.20;99.90
27559;DHT22;15002;52.028;5.670;2023-12-29T10:44:35;13.40;99.90
27559;DHT22;15002;52.028;5.670;2023-12-29T10:47:10;13.40;99.90
27559;DHT22;15002;52.028;5.670;2023-12-29T10:49:37;13.30;99.90
27559;DHT22;15002;52.028;5.670;2023-12-29T10:52:16;13.10;99.90
27559;DHT22;15002;52.028;5.670;2023-12-29T10:54:42;13.10;99.90
27559;DHT22;15002;52.028;5.670;2023-12-29T10:57:10;13.20;99.90
27559;DHT22;15002;52.028;5.670;2023-12-29T10:59:37;13.10;99.90
27559;DHT22;15002;52.028;5.670;2023-12-29T11:02:03;13.10;99.90
27559;DHT22;15002;52.028;5.670;2023-12-29T11:04:29;13.10;99.90
27559;DHT22;15002;52.028;5.670;2023-12-29T11:06:54;12.90;99.90
27559;DHT22;15002;52.028;5.670;2023-12-29T11:09:33;12.80;99.90
27559;DHT22;15002;52.028;5.670;2023-12-29T11:12:03;12.90;99.90
27559;DHT22;15002;52.028;5.670;2023-12-29T11:14:30;13.00;99.90
27559;DHT22;15002;52.028;5.670;2023-12-29T11:17:00;12.80;99.90
27559;DHT22;15002;52.028;5.670;2023-12-29T11:19:26;12.70;99.90
27559;DHT22;15002;52.028;5.670;2023-12-29T11:21:54;12.60;99.90
27559;DHT22;15002;52.028;5.670;2023-12-29T11:24:21;12.60;99.90
27559;DHT22;15002;52.028;5.670;2023-12-29T11:26:48;12.60;99.90
27559;DHT22;15002;52.028;5.670;2023-12-29T11:29:15;12.80;99.90
27559;DHT22;15002;52.028;5.670;2023-12-29T11:31:41;12.80;99.90
27559;DHT22;15002;52.028;5.670;2023-12-29T11:34:14;12.80;99.90
27559;DHT22;15002;52.028;5.670;2023-12-29T11:36:45;12.90;99.90
27559;DHT22;15002;52.028;5.670;2023-12-29T11:39:38;13.10;99.90
27559;DHT22;15002;52.028;5.670;2023-12-29T11:42:16;13.30;99.90
27559;DHT22;15002;52.028;5.670;2023-12-29T11:44:43;13.00;99.90
27559;DHT22;15002;52.028;5.670;2023-12-29T11:47:34;12.90;99.90
27559;DHT22;15002;52.028;5.670;2023-12-29T11:50:01;13.20;99.90
27559;DHT22;15002;52.028;5.670;2023-12-29T11:52:38;13.10;99.90
27559;DHT22;15002;52.028;5.670;2023-12-29T11:55:12;13.10;99.90
27559;DHT22;15002;52.028;5.670;2023-12-29T11:57:38;13.20;99.90
27559;DHT22;15002;52.028;5.670;2023-12-29T12:00:06;13.50;99.90
27559;DHT22;15002;52.028;5.670;2023-12-29T12:02:32;13.30;99.90
27559;DHT22;15002;52.028;5.670;2023-12-29T12:04:58;13.40;99.90
27559;DHT22;15002;52.028;5.670;2023-12-29T12:09:50;13.30;99.90
27559;DHT22;15002;52.028;5.670;2023-12-29T12:12:44;13.30;99.90
27559;DHT22;15002;52.028;5.670;2023-12-29T12:17:54;13.10;99.90
27559;DHT22;15002;52.028;5.670;2023-12-29T12:20:20;13.30;99.90
27559;DHT22;15002;52.028;5.670;2023-12-29T12:22:50;13.20;99.90
27559;DHT22;15002;52.028;5.670;2023-12-29T12:25:22;13.10;99.90
27559;DHT22;15002;52.028;5.670;2023-12-29T12:27:50;13.20;99.90
27559;DHT22;15002;52.028;5.670;2023-12-29T12:30:20;13.40;99.90
27559;DHT22;15002;52.028;5.670;2023-12-29T12:32:47;13.40;99.90
27559;DHT22;15002;52.028;5.670;2023-12-29T12:35:22;13.60;99.90
27559;DHT22;15002;52.028;5.670;2023-12-29T12:37:47;13.40;99.90
27559;DHT22;15002;52.028;5.670;2023-12-29T12:40:25;13.20;99.90
27559;DHT22;15002;52.028;5.670;2023-12-29T12:42:51;13.30;99.90
27559;DHT22;15002;52.028;5.670;2023-12-29T12:45:20;13.30;99.90
27559;DHT22;15002;52.028;5.670;2023-12-29T12:47:52;13.40;99.90
27559;DHT22;15002;52.028;5.670;2023-12-29T12:50:20;13.50;99.90
27559;DHT22;15002;52.028;5.670;2023-12-29T12:52:46;13.50;99.90
27559;DHT22;15002;52.028;5.670;2023-12-29T12:55:12;13.60;99.90
27559;DHT22;15002;52.028;5.670;2023-12-29T12:57:40;13.60;99.90
27559;DHT22;15002;52.028;5.670;2023-12-29T13:00:06;13.30;99.90
27559;DHT22;15002;52.028;5.670;2023-12-29T13:02:33;13.40;99.90
27559;DHT22;15002;52.028;5.670;2023-12-29T13:04:59;13.50;99.90
27559;DHT22;15002;52.028;5.670;2023-12-29T13:07:25;13.50;99.90
27559;DHT22;15002;52.028;5.670;2023-12-29T13:09:52;13.50;99.90
27559;DHT22;15002;52.028;5.670;2023-12-29T13:12:18;13.50;99.90
27559;DHT22;15002;52.028;5.670;2023-12-29T13:14:44;13.40;99.90
27559;DHT22;15002;52.028;5.670;2023-12-29T13:17:14;13.40;99.90
27559;DHT22;15002;52.028;5.670;2023-12-29T13:19:41;13.40;99.90
27559;DHT22;15002;52.028;5.670;2023-12-29T13:22:11;13.50;99.90
27559;DHT22;15002;52.028;5.670;2023-12-29T13:24:46;13.40;99.90
27559;DHT22;15002;52.028;5.670;2023-12-29T13:27:13;13.50;99.90
27559;DHT22;15002;52.028;5.670;2023-12-29T13:29:39;13.80;99.90
27559;DHT22;15002;52.028;5.670;2023-12-29T13:37:48;13.70;99.90
27559;DHT22;15002;52.028;5.670;2023-12-29T13:40:40;13.30;99.90
27559;DHT22;15002;52.028;5.670;2023-12-29T13:43:08;13.50;99.90
27559;DHT22;15002;52.028;5.670;2023-12-29T13:45:37;13.50;99.90
27559;DHT22;15002;52.028;5.670;2023-12-29T13:48:05;13.50;99.90
27559;DHT22;15002;52.028;5.670;2023-12-29T13:50:32;13.40;99.90
27559;DHT22;15002;52.028;5.670;2023-12-29T13:52:59;13.50;99.90
27559;DHT22;15002;52.028;5.670;2023-12-29T13:55:25;13.40;99.90
27559;DHT22;15002;52.028;5.670;2023-12-29T13:57:51;13.50;99.90
27559;DHT22;15002;52.028;5.670;2023-12-29T14:00:21;13.50;99.90
27559;DHT22;15002;52.028;5.670;2023-12-29T14:05:47;13.40;99.90
27559;DHT22;15002;52.028;5.670;2023-12-29T14:08:18;13.50;99.90
27559;DHT22;15002;52.028;5.670;2023-12-29T14:10:45;13.40;99.90
27559;DHT22;15002;52.028;5.670;2023-12-29T14:13:15;13.50;99.90
27559;DHT22;15002;52.028;5.670;2023-12-29T14:15:43;13.50;99.90
27559;DHT22;15002;52.028;5.670;2023-12-29T14:20:40;13.30;99.90
27559;DHT22;15002;52.028;5.670;2023-12-29T14:23:06;13.20;99.90
27559;DHT22;15002;52.028;5.670;2023-12-29T14:25:38;13.20;99.90
27559;DHT22;15002;52.028;5.670;2023-12-29T14:28:17;13.20;99.90
27559;DHT22;15002;52.028;5.670;2023-12-29T14:30:44;13.20;99.90
27559;DHT22;15002;52.028;5.670;2023-12-29T14:33:10;13.50;99.90
27559;DHT22;15002;52.028;5.670;2023-12-29T14:35:36;13.50;99.90
27559;DHT22;15002;52.028;5.670;2023-12-29T14:38:01;13.80;99.90
27559;DHT22;15002;52.028;5.670;2023-12-29T14:40:27;13.60;99.90
27559;DHT22;15002;52.028;5.670;2023-12-29T14:42:53;13.50;99.90
27559;DHT22;15002;52.028;5.670;2023-12-29T14:45:19;13.40;99.90
27559;DHT22;15002;52.028;5.670;2023-12-29T14:47:44;13.40;99.90
27559;DHT22;15002;52.028;5.670;2023-12-29T14:50:14;13.40;99.90
27559;DHT22;15002;52.028;5.670;2023-12-29T14:52:40;13.10;99.90
27559;DHT22;15002;52.028;5.670;2023-12-29T14:55:06;13.10;99.90
27559;DHT22;15002;52.028;5.670;2023-12-29T14:57:32;13.20;99.90
27559;DHT22;15002;52.028;5.670;2023-12-29T14:59:57;13.10;99.90
27559;DHT22;15002;52.028;5.670;2023-12-29T15:02:23;12.80;99.90
27559;DHT22;15002;52.028;5.670;2023-12-29T15:04:50;12.70;99.90
27559;DHT22;15002;52.028;5.670;2023-12-29T15:07:16;12.60;99.90
27559;DHT22;15002;52.028;5.670;2023-12-29T15:09:43;12.50;99.90
27559;DHT22;15002;52.028;5.670;2023-12-29T15:12:09;12.20;99.90
27559;DHT22;15002;52.028;5.670;2023-12-29T15:14:34;12.20;99.90
27559;DHT22;15002;52.028;5.670;2023-12-29T15:17:00;12.30;99.90
27559;DHT22;15002;52.028;5.670;2023-12-29T15:19:25;12.10;99.90
27559;DHT22;15002;52.028;5.670;2023-12-29T15:21:51;12.30;99.90
27559;DHT22;15002;52.028;5.670;2023-12-29T15:24:19;12.60;99.90
27559;DHT22;15002;52.028;5.670;2023-12-29T15:26:46;12.70;99.90
27559;DHT22;15002;52.028;5.670;2023-12-29T15:29:11;12.30;99.90
27559;DHT22;15002;52.028;5.670;2023-12-29T15:31:37;12.10;99.90
27559;DHT22;15002;52.028;5.670;2023-12-29T15:34:03;12.10;99.90
27559;DHT22;15002;52.028;5.670;2023-12-29T15:36:29;12.20;99.90
27559;DHT22;15002;52.028;5.670;2023-12-29T15:38:55;12.20;99.90
27559;DHT22;15002;52.028;5.670;2023-12-29T15:41:20;12.00;99.90
27559;DHT22;15002;52.028;5.670;2023-12-29T15:43:46;12.00;99.90
27559;DHT22;15002;52.028;5.670;2023-12-29T15:46:13;11.70;99.90